Time;durP1;ratioP1;P1;durP2;ratioP2;P2;SDS_P1;SDS_P2;PMS_P1;PMS_P2;Temp;Humidity;BMP_temperature;BMP_pressure;BME280_temperature;BME280_humidity;BME280_pressure;Samples;Min_cycle;Max_cycle;Signal;HPM_P1;HPM_P2
2022/03/09 00:02:01;;;;;;;1.15;0.50;;;15.20;32.80;;;;;;5069111;28;20045;-74
2022/03/09 00:04:26;;;;;;;1.20;0.60;;;15.20;32.30;;;;;;5054211;28;20040;-71
2022/03/09 00:06:52;;;;;;;1.02;0.65;;;15.20;32.30;;;;;;5069621;28;20129;-73
2022/03/09 00:09:18;;;;;;;1.10;0.55;;;15.20;32.40;;;;;;5069549;28;20040;-72
2022/03/09 00:11:46;;;;;;;1.33;0.80;;;15.20;32.40;;;;;;5069466;28;20049;-74
2022/03/09 00:14:15;;;;;;;1.05;0.65;;;15.20;32.40;;;;;;5069788;28;20451;-74
2022/03/09 00:16:40;;;;;;;2.42;0.77;;;15.20;32.40;;;;;;5052636;28;20041;-71
2022/03/09 00:19:06;;;;;;;5.28;0.90;;;15.20;33.30;;;;;;5052780;28;20098;-71
2022/03/09 00:21:32;;;;;;;1.10;0.65;;;15.20;32.50;;;;;;5053953;28;20123;-74
2022/03/09 00:23:57;;;;;;;1.67;0.60;;;15.10;32.40;;;;;;5053771;28;20401;-73
2022/03/09 00:26:23;;;;;;;1.10;0.70;;;15.10;32.50;;;;;;5069142;28;20388;-74
2022/03/09 00:28:48;;;;;;;1.35;0.77;;;15.10;32.50;;;;;;5053513;28;20052;-73
2022/03/09 00:31:14;;;;;;;1.02;0.60;;;15.10;32.50;;;;;;5068877;28;20060;-74
2022/03/09 00:33:40;;;;;;;1.00;0.63;;;15.10;32.50;;;;;;5069246;28;20048;-72
2022/03/09 00:36:05;;;;;;;1.48;0.73;;;15.10;32.60;;;;;;5052662;28;20540;-71
2022/03/09 00:38:31;;;;;;;0.90;0.40;;;15.00;32.60;;;;;;5052339;28;20480;-72
2022/03/09 00:40:57;;;;;;;2.15;0.70;;;15.00;32.60;;;;;;5053877;28;20037;-71
2022/03/09 00:43:23;;;;;;;1.83;0.60;;;15.00;32.70;;;;;;5053572;28;20447;-72
2022/03/09 00:45:49;;;;;;;1.15;0.60;;;14.90;32.80;;;;;;5052006;28;20048;-73
2022/03/09 00:48:15;;;;;;;1.30;1.20;;;14.90;32.90;;;;;;5052146;28;20051;-72
2022/03/09 00:50:41;;;;;;;0.82;0.60;;;14.80;32.90;;;;;;5052366;28;20049;-73
2022/03/09 00:53:06;;;;;;;2.05;0.90;;;14.80;32.90;;;;;;5068528;28;20065;-71
2022/03/09 00:55:35;;;;;;;1.45;0.90;;;14.80;32.90;;;;;;5068577;28;20040;-71
2022/03/09 00:58:00;;;;;;;2.85;0.82;;;14.70;32.90;;;;;;5053485;28;20032;-71
2022/03/09 01:00:26;;;;;;;2.83;0.80;;;14.70;33.00;;;;;;5068854;28;20499;-74
2022/03/09 01:02:52;;;;;;;1.85;0.73;;;14.70;33.10;;;;;;5052989;28;20045;-73
2022/03/09 01:05:17;;;;;;;1.17;0.50;;;14.60;33.10;;;;;;5052080;28;20041;-71
2022/03/09 01:07:43;;;;;;;1.02;0.50;;;14.60;33.10;;;;;;5053235;28;20040;-71
2022/03/09 01:10:09;;;;;;;1.58;0.82;;;14.60;33.20;;;;;;5053163;28;20395;-71
2022/03/09 01:12:35;;;;;;;1.08;0.45;;;14.60;33.20;;;;;;5050859;28;20052;-71
2022/03/09 01:15:01;;;;;;;1.52;0.85;;;14.60;33.20;;;;;;5052927;28;20037;-74
2022/03/09 01:17:27;;;;;;;1.02;0.47;;;14.60;33.20;;;;;;5068334;28;20481;-71
2022/03/09 01:19:53;;;;;;;1.90;0.68;;;14.60;33.30;;;;;;5051501;28;20513;-71
2022/03/09 01:22:21;;;;;;;1.90;0.60;;;14.60;33.30;;;;;;5052870;28;20075;-71
2022/03/09 01:24:47;;;;;;;1.05;0.55;;;14.50;33.30;;;;;;5068063;28;20484;-71
2022/03/09 01:27:13;;;;;;;2.47;0.70;;;14.60;33.30;;;;;;5052602;28;20033;-71
2022/03/09 01:29:39;;;;;;;2.40;0.82;;;14.50;34.00;;;;;;5052257;28;20107;-71
2022/03/09 01:32:05;;;;;;;2.22;1.15;;;14.50;33.10;;;;;;5051248;28;20052;-73
2022/03/09 01:34:30;;;;;;;1.23;0.68;;;14.50;33.10;;;;;;5067698;28;20041;-71
2022/03/09 01:36:56;;;;;;;1.20;0.90;;;14.50;33.10;;;;;;5051705;28;20110;-71
2022/03/09 01:39:22;;;;;;;1.35;0.60;;;14.50;33.20;;;;;;5068048;28;20051;-71
2022/03/09 01:41:51;;;;;;;2.28;0.63;;;14.50;33.20;;;;;;5068070;28;20076;-71
2022/03/09 01:44:24;;;;;;;1.63;0.70;;;14.50;33.20;;;;;;5067940;28;20044;-74
2022/03/09 01:46:52;;;;;;;1.58;0.90;;;14.40;33.20;;;;;;5052545;28;20111;-71
2022/03/09 01:49:19;;;;;;;1.23;0.60;;;14.40;33.20;;;;;;5067604;28;20646;-71
2022/03/09 01:51:47;;;;;;;1.17;0.70;;;14.40;33.30;;;;;;5052469;28;20033;-71
2022/03/09 01:54:13;;;;;;;1.50;0.60;;;14.30;33.30;;;;;;5052238;28;20048;-73
2022/03/09 01:56:40;;;;;;;2.88;1.05;;;14.30;33.30;;;;;;5051266;28;20123;-71
2022/03/09 01:59:09;;;;;;;1.33;0.90;;;14.30;33.40;;;;;;5052153;28;20119;-74
2022/03/09 02:01:35;;;;;;;0.90;0.47;;;14.30;33.50;;;;;;5067663;28;20049;-71
2022/03/09 02:04:03;;;;;;;1.23;0.90;;;14.30;33.50;;;;;;5052332;28;20106;-71
2022/03/09 02:06:31;;;;;;;2.17;0.70;;;14.30;33.60;;;;;;5067670;28;20393;-71
2022/03/09 02:11:50;;;;;;;1.50;0.90;;;14.20;33.50;;;;;;5051774;28;20049;-71
2022/03/09 02:19:58;;;;;;;1.25;1.02;;;14.10;33.60;;;;;;5130199;27;20407;-69
2022/03/09 02:22:43;;;;;;;1.25;0.93;;;14.10;33.80;;;;;;5129230;28;20083;-72
2022/03/09 02:27:53;;;;;;;1.50;0.90;;;14.10;33.70;;;;;;5109688;27;20403;-72
2022/03/09 02:30:19;;;;;;;1.45;0.90;;;14.00;34.40;;;;;;5108447;28;20081;-70
2022/03/09 02:32:47;;;;;;;2.85;0.73;;;14.00;33.60;;;;;;5108838;28;20047;-74
2022/03/09 02:35:15;;;;;;;1.40;0.90;;;14.00;33.70;;;;;;5108574;28;20046;-72
2022/03/09 02:37:42;;;;;;;1.73;1.23;;;14.00;33.70;;;;;;5108596;28;20048;-71
2022/03/09 02:40:10;;;;;;;2.20;1.30;;;14.00;33.80;;;;;;5108571;28;20135;-71
2022/03/09 02:42:36;;;;;;;1.40;1.08;;;13.90;33.70;;;;;;5109505;28;20075;-73
2022/03/09 02:45:03;;;;;;;1.92;1.10;;;13.90;33.80;;;;;;5108464;28;20105;-70
2022/03/09 02:47:28;;;;;;;2.15;0.80;;;13.90;33.80;;;;;;5109319;28;20083;-73
2022/03/09 02:49:54;;;;;;;1.83;1.05;;;13.90;33.80;;;;;;5109286;28;20082;-71
2022/03/09 02:52:20;;;;;;;1.67;1.10;;;13.90;33.80;;;;;;5108107;28;20066;-71
2022/03/09 02:54:45;;;;;;;1.75;1.33;;;13.90;33.80;;;;;;5108228;28;20096;-74
2022/03/09 02:57:14;;;;;;;1.40;1.00;;;13.80;33.90;;;;;;5107923;28;20436;-71
2022/03/09 02:59:39;;;;;;;3.38;1.50;;;13.90;33.80;;;;;;5108225;28;20043;-71
2022/03/09 03:02:05;;;;;;;1.50;0.90;;;13.80;33.80;;;;;;5108045;28;20122;-70
2022/03/09 03:04:31;;;;;;;1.67;1.20;;;13.80;33.80;;;;;;5107706;28;20068;-73
2022/03/09 03:06:56;;;;;;;1.83;1.27;;;13.80;33.80;;;;;;5107032;28;20042;-74
2022/03/09 03:09:23;;;;;;;2.42;1.08;;;13.80;33.90;;;;;;5108020;28;20050;-71
2022/03/09 03:11:49;;;;;;;2.20;1.10;;;13.80;33.90;;;;;;5108893;28;20039;-71
2022/03/09 03:14:15;;;;;;;1.73;1.13;;;13.80;33.90;;;;;;5107820;28;20093;-70
2022/03/09 03:16:41;;;;;;;2.00;1.30;;;13.80;33.90;;;;;;5108812;28;20123;-70
2022/03/09 03:19:06;;;;;;;1.60;1.20;;;13.70;33.90;;;;;;5109032;28;20048;-73
2022/03/09 03:21:32;;;;;;;1.88;1.20;;;13.80;33.90;;;;;;5108644;28;20400;-74
2022/03/09 03:23:58;;;;;;;1.73;1.50;;;13.70;33.90;;;;;;5107680;28;20043;-70
2022/03/09 03:26:24;;;;;;;2.88;1.10;;;13.70;34.00;;;;;;5107059;28;20500;-72
2022/03/09 03:28:51;;;;;;;1.83;1.20;;;13.70;34.00;;;;;;5107561;28;20047;-73
2022/03/09 03:31:19;;;;;;;1.50;1.30;;;13.70;34.00;;;;;;5107483;28;20039;-71
2022/03/09 03:33:47;;;;;;;1.23;0.88;;;13.70;34.00;;;;;;5108480;28;20039;-72
2022/03/09 03:36:15;;;;;;;1.75;1.10;;;13.60;34.00;;;;;;5107315;28;20047;-73
2022/03/09 03:38:40;;;;;;;1.25;0.95;;;13.70;34.10;;;;;;5096206;28;20040;-73
2022/03/09 03:41:06;;;;;;;1.70;1.17;;;13.60;34.00;;;;;;5093724;28;20101;-74
2022/03/09 03:43:32;;;;;;;1.90;1.30;;;13.60;34.00;;;;;;5093660;28;20047;-70
2022/03/09 03:45:57;;;;;;;1.65;1.30;;;13.60;34.00;;;;;;5093598;28;20119;-71
2022/03/09 03:48:23;;;;;;;1.92;1.45;;;13.60;34.00;;;;;;5093593;28;20127;-71
2022/03/09 03:50:48;;;;;;;2.35;1.63;;;13.60;34.10;;;;;;5093486;28;20036;-74
2022/03/09 03:53:15;;;;;;;3.67;1.63;;;13.60;34.00;;;;;;5093577;28;20127;-72
2022/03/09 03:55:41;;;;;;;2.13;1.50;;;13.60;34.00;;;;;;5093537;28;20116;-73
2022/03/09 03:58:06;;;;;;;2.38;1.30;;;13.60;34.00;;;;;;5093147;28;20032;-71
2022/03/09 04:00:32;;;;;;;2.80;1.45;;;13.60;34.00;;;;;;5094439;28;20044;-73
2022/03/09 04:02:58;;;;;;;1.40;1.15;;;13.50;34.00;;;;;;5094504;28;20043;-71
2022/03/09 04:05:23;;;;;;;2.40;1.58;;;13.60;34.10;;;;;;5094489;28;20379;-70
2022/03/09 04:07:49;;;;;;;1.90;1.40;;;13.50;34.10;;;;;;5093381;28;20376;-70
2022/03/09 04:10:15;;;;;;;2.00;1.38;;;13.50;34.10;;;;;;5093027;28;20560;-70
2022/03/09 04:12:41;;;;;;;1.92;1.63;;;13.50;34.10;;;;;;5092997;28;20036;-71
2022/03/09 04:15:07;;;;;;;2.00;1.52;;;13.50;34.10;;;;;;5127023;27;20059;-71
2022/03/09 04:17:42;;;;;;;1.95;1.75;;;13.50;34.10;;;;;;5094245;28;20507;-70
2022/03/09 04:20:08;;;;;;;1.63;1.30;;;13.50;34.10;;;;;;5127126;27;20044;-70
2022/03/09 04:22:34;;;;;;;1.70;1.23;;;13.50;34.20;;;;;;5094106;28;20040;-71
2022/03/09 04:25:03;;;;;;;2.17;1.20;;;13.50;34.20;;;;;;5092929;28;20047;-71
2022/03/09 04:27:32;;;;;;;3.13;1.83;;;13.40;34.10;;;;;;5093992;28;20113;-71
2022/03/09 04:29:57;;;;;;;2.15;1.58;;;13.40;34.20;;;;;;5093886;28;20118;-72
2022/03/09 04:32:25;;;;;;;1.70;1.17;;;13.40;34.20;;;;;;5092585;28;20456;-71
2022/03/09 04:34:53;;;;;;;2.15;1.08;;;13.40;34.20;;;;;;5092592;28;20036;-71
2022/03/09 04:37:20;;;;;;;1.75;1.45;;;13.40;34.20;;;;;;5092484;28;20047;-70
2022/03/09 04:39:46;;;;;;;2.65;1.52;;;13.40;34.10;;;;;;5092394;28;20075;-71
2022/03/09 04:42:15;;;;;;;1.73;1.20;;;13.40;34.10;;;;;;5092444;28;20444;-74
2022/03/09 04:44:41;;;;;;;2.30;1.38;;;13.40;34.10;;;;;;5093564;28;20035;-70
2022/03/09 04:47:06;;;;;;;1.80;1.25;;;13.40;34.10;;;;;;5091637;28;20109;-72
2022/03/09 04:49:32;;;;;;;1.80;1.35;;;13.40;34.20;;;;;;5091353;28;20039;-71
2022/03/09 04:51:57;;;;;;;2.60;1.90;;;13.40;34.20;;;;;;5093605;28;20581;-70
2022/03/09 04:54:23;;;;;;;2.42;1.50;;;13.30;34.20;;;;;;5092099;28;20032;-71
2022/03/09 04:56:49;;;;;;;2.00;1.20;;;13.30;34.20;;;;;;5092048;28;20040;-71
2022/03/09 04:59:16;;;;;;;1.63;1.30;;;13.20;34.30;;;;;;5092323;28;20048;-70
2022/03/09 05:01:45;;;;;;;2.17;1.50;;;13.30;34.30;;;;;;5093318;28;20044;-70
2022/03/09 05:04:13;;;;;;;3.58;2.05;;;13.20;34.30;;;;;;5092094;28;20066;-71
2022/03/09 05:06:39;;;;;;;2.00;1.70;;;13.20;34.30;;;;;;5091784;28;20044;-70
2022/03/09 05:09:05;;;;;;;2.10;1.70;;;13.20;34.30;;;;;;5093407;28;20039;-70
2022/03/09 05:11:30;;;;;;;1.73;1.58;;;13.20;34.30;;;;;;5093213;28;20118;-70
2022/03/09 05:13:56;;;;;;;1.80;1.58;;;13.10;34.30;;;;;;5092085;28;20506;-70
2022/03/09 05:16:22;;;;;;;2.28;1.42;;;13.20;34.40;;;;;;5091570;28;20062;-71
2022/03/09 05:18:48;;;;;;;2.88;1.45;;;13.10;34.30;;;;;;5093025;28;20094;-70
2022/03/09 05:21:14;;;;;;;1.83;1.40;;;13.10;34.40;;;;;;5093054;28;20464;-70
2022/03/09 05:23:39;;;;;;;2.15;1.75;;;13.10;34.40;;;;;;5093024;28;20524;-70
2022/03/09 05:26:05;;;;;;;2.10;1.40;;;13.10;34.40;;;;;;5091288;28;20110;-70
2022/03/09 05:28:33;;;;;;;2.22;1.75;;;13.10;34.40;;;;;;5091534;28;20052;-70
2022/03/09 05:30:59;;;;;;;1.55;1.35;;;13.10;34.50;;;;;;5092744;28;20040;-70
2022/03/09 05:33:25;;;;;;;1.90;1.33;;;13.00;34.50;;;;;;5091945;28;20077;-70
2022/03/09 05:35:50;;;;;;;1.55;1.30;;;13.00;34.40;;;;;;5091028;28;20698;-71
2022/03/09 05:38:16;;;;;;;1.73;1.60;;;13.00;34.50;;;;;;5091260;28;20040;-70
2022/03/09 05:40:42;;;;;;;3.15;1.67;;;13.00;34.50;;;;;;5125370;27;20070;-70
2022/03/09 05:43:07;;;;;;;2.20;1.98;;;13.00;34.60;;;;;;5091341;28;20047;-70
2022/03/09 05:45:33;;;;;;;1.95;1.52;;;13.00;34.60;;;;;;5091150;28;20097;-70
2022/03/09 05:47:58;;;;;;;2.30;2.03;;;13.00;34.60;;;;;;5091265;28;20082;-70
2022/03/09 05:50:24;;;;;;;2.22;1.50;;;13.00;34.60;;;;;;5091096;28;20053;-70
2022/03/09 05:52:51;;;;;;;1.77;1.40;;;12.90;34.50;;;;;;5091044;28;20122;-70
2022/03/09 05:55:16;;;;;;;2.05;1.55;;;13.00;34.60;;;;;;5091038;28;20483;-70
2022/03/09 05:57:42;;;;;;;1.83;1.27;;;13.00;34.60;;;;;;5091009;28;20118;-70
2022/03/09 06:00:08;;;;;;;2.03;1.73;;;13.00;34.60;;;;;;5092142;28;20076;-70
2022/03/09 06:02:34;;;;;;;2.00;1.75;;;12.90;34.60;;;;;;5091013;28;20580;-70
2022/03/09 06:05:00;;;;;;;3.03;1.90;;;12.90;34.60;;;;;;5090874;28;20040;-70
2022/03/09 06:07:30;;;;;;;3.25;1.73;;;12.90;34.60;;;;;;5090747;28;20126;-70
2022/03/09 06:09:56;;;;;;;2.53;1.77;;;12.80;34.50;;;;;;5091224;28;20040;-70
2022/03/09 06:12:22;;;;;;;1.60;1.30;;;12.90;34.60;;;;;;5091116;28;20471;-70
2022/03/09 06:14:50;;;;;;;2.13;1.60;;;12.80;34.60;;;;;;5091942;28;20039;-70
2022/03/09 06:17:16;;;;;;;2.55;1.45;;;12.80;34.60;;;;;;5092097;28;20043;-70
2022/03/09 06:19:45;;;;;;;1.92;1.27;;;12.80;34.60;;;;;;5091028;28;20048;-70
2022/03/09 06:22:11;;;;;;;1.73;1.63;;;12.80;34.60;;;;;;5090979;28;20469;-70
2022/03/09 06:24:36;;;;;;;1.80;1.70;;;12.80;34.60;;;;;;5090988;28;20052;-70
2022/03/09 06:27:02;;;;;;;2.38;1.83;;;12.80;34.60;;;;;;5090401;28;20400;-70
2022/03/09 06:29:28;;;;;;;1.90;1.63;;;12.80;34.60;;;;;;5090530;28;20427;-70
2022/03/09 06:31:55;;;;;;;1.88;1.65;;;12.90;34.60;;;;;;5090927;28;20036;-70
2022/03/09 06:34:21;;;;;;;3.25;1.80;;;12.80;34.60;;;;;;5090783;28;20046;-70
2022/03/09 06:36:46;;;;;;;2.10;1.83;;;12.80;34.50;;;;;;5090743;28;20122;-70
2022/03/09 06:39:14;;;;;;;1.70;1.35;;;12.80;34.40;;;;;;5091749;28;20510;-70
2022/03/09 06:41:41;;;;;;;4.32;2.42;;;12.80;34.40;;;;;;5090812;28;20044;-70
2022/03/09 06:44:07;;;;;;;2.95;2.00;;;12.80;34.50;;;;;;5090754;28;20123;-70
2022/03/09 06:46:35;;;;;;;1.75;1.33;;;12.80;34.50;;;;;;5090577;28;20090;-70
2022/03/09 06:49:01;;;;;;;2.10;1.90;;;12.80;34.40;;;;;;5124586;28;20066;-70
2022/03/09 06:51:27;;;;;;;2.42;1.77;;;12.80;34.40;;;;;;5091549;28;20072;-70
2022/03/09 06:53:52;;;;;;;2.17;1.77;;;12.80;34.40;;;;;;5090749;28;20036;-70
2022/03/09 06:56:18;;;;;;;2.72;1.98;;;12.80;34.40;;;;;;5090377;28;20042;-70
2022/03/09 06:58:45;;;;;;;3.25;2.67;;;12.80;34.40;;;;;;5091612;28;20052;-70
2022/03/09 07:01:14;;;;;;;2.97;2.20;;;12.90;34.40;;;;;;5090994;28;20036;-70
2022/03/09 07:03:40;;;;;;;2.67;1.98;;;12.90;34.30;;;;;;5090632;28;20042;-70
2022/03/09 07:06:05;;;;;;;2.63;1.90;;;12.90;34.30;;;;;;5090271;28;20481;-70
2022/03/09 07:08:31;;;;;;;3.30;1.90;;;12.90;34.30;;;;;;5090573;28;20380;-71
2022/03/09 07:10:58;;;;;;;2.15;1.70;;;12.90;34.30;;;;;;5091527;28;20071;-70
2022/03/09 07:13:24;;;;;;;2.47;1.75;;;12.90;34.20;;;;;;5092071;28;20055;-70
2022/03/09 07:15:50;;;;;;;2.88;2.20;;;12.90;34.20;;;;;;5093937;28;20047;-70
2022/03/09 07:18:16;;;;;;;2.60;2.03;;;12.90;34.20;;;;;;5094102;28;20066;-70
2022/03/09 07:20:41;;;;;;;1.98;1.50;;;12.90;34.20;;;;;;5095188;28;20173;-70
2022/03/09 07:23:07;;;;;;;2.40;2.00;;;13.00;34.20;;;;;;5093955;28;20528;-70
2022/03/09 07:25:34;;;;;;;2.60;1.92;;;13.00;34.30;;;;;;5093652;28;20036;-70
2022/03/09 07:28:00;;;;;;;3.17;1.60;;;12.90;34.10;;;;;;5095147;28;20373;-70
2022/03/09 07:30:26;;;;;;;2.42;1.75;;;13.00;34.10;;;;;;5094989;28;20500;-70
2022/03/09 07:32:51;;;;;;;2.75;2.30;;;13.00;34.10;;;;;;5093807;28;20044;-70
2022/03/09 07:35:17;;;;;;;2.90;2.30;;;13.00;34.10;;;;;;5093564;28;20123;-71
2022/03/09 07:37:42;;;;;;;2.47;1.70;;;13.00;34.10;;;;;;5093872;28;20044;-70
2022/03/09 07:40:09;;;;;;;2.88;1.92;;;13.00;34.10;;;;;;5093608;28;20388;-70
2022/03/09 07:42:35;;;;;;;2.65;1.92;;;13.00;34.10;;;;;;5093548;28;20505;-70
2022/03/09 07:45:06;;;;;;;2.58;1.83;;;13.00;34.10;;;;;;5094926;28;20068;-70
2022/03/09 07:47:33;;;;;;;2.50;2.10;;;13.00;34.10;;;;;;5093331;28;20039;-70
2022/03/09 07:49:59;;;;;;;1.98;1.75;;;13.00;34.10;;;;;;5094800;28;20052;-70
2022/03/09 07:52:25;;;;;;;2.33;1.90;;;13.00;34.10;;;;;;5094611;28;20115;-73
2022/03/09 07:54:50;;;;;;;2.20;1.98;;;13.00;34.10;;;;;;5093363;28;20047;-70
2022/03/09 07:57:16;;;;;;;3.20;1.90;;;13.00;34.00;;;;;;5093180;28;20059;-70
2022/03/09 07:59:42;;;;;;;2.78;1.85;;;13.00;34.00;;;;;;5093277;28;20058;-70
2022/03/09 08:02:08;;;;;;;2.70;2.10;;;13.00;34.00;;;;;;5093125;28;20127;-70
2022/03/09 08:04:34;;;;;;;3.03;2.33;;;13.00;34.00;;;;;;5093111;28;20040;-70
2022/03/09 08:07:00;;;;;;;3.33;2.13;;;13.00;34.00;;;;;;5093495;28;20039;-70
2022/03/09 08:09:25;;;;;;;2.08;1.83;;;13.00;34.00;;;;;;5094140;28;20395;-71
2022/03/09 08:11:51;;;;;;;2.80;2.25;;;13.00;33.90;;;;;;5092943;28;20040;-70
2022/03/09 08:14:17;;;;;;;2.50;2.00;;;13.00;33.90;;;;;;5094201;28;20032;-70
2022/03/09 08:16:42;;;;;;;2.63;2.00;;;13.10;33.90;;;;;;5094041;28;20484;-70
2022/03/09 08:19:08;;;;;;;2.17;1.98;;;13.10;33.90;;;;;;5094178;28;20085;-70
2022/03/09 08:21:34;;;;;;;2.20;2.00;;;13.10;33.80;;;;;;5092997;28;20055;-70
2022/03/09 08:23:59;;;;;;;2.83;2.05;;;13.10;33.80;;;;;;5092572;28;20392;-70
2022/03/09 08:26:25;;;;;;;2.45;2.10;;;13.10;33.70;;;;;;5092277;28;20051;-70
2022/03/09 08:28:51;;;;;;;2.03;1.67;;;13.10;33.70;;;;;;5093986;28;20047;-70
2022/03/09 08:31:17;;;;;;;2.75;1.80;;;13.10;33.70;;;;;;5092887;28;20070;-70
2022/03/09 08:33:43;;;;;;;2.90;1.77;;;13.10;33.70;;;;;;5093821;28;20046;-70
2022/03/09 08:36:11;;;;;;;2.35;1.70;;;13.10;33.60;;;;;;5092466;28;20048;-70
2022/03/09 08:38:37;;;;;;;2.15;1.73;;;13.20;33.70;;;;;;5092554;28;20549;-70
2022/03/09 08:41:02;;;;;;;2.55;1.90;;;13.20;33.70;;;;;;5092732;28;20044;-70
2022/03/09 08:43:28;;;;;;;4.38;1.80;;;13.20;33.70;;;;;;5092646;28;20707;-70
2022/03/09 08:45:54;;;;;;;2.60;1.90;;;13.20;33.60;;;;;;5092171;28;20036;-70
2022/03/09 08:48:19;;;;;;;2.50;1.52;;;13.20;33.60;;;;;;5092258;28;20123;-70
2022/03/09 08:50:45;;;;;;;1.92;1.70;;;13.20;34.30;;;;;;5093503;28;20040;-70
2022/03/09 08:53:10;;;;;;;2.25;1.77;;;13.20;33.50;;;;;;5092067;28;20093;-70
2022/03/09 08:55:39;;;;;;;2.35;1.80;;;13.20;33.60;;;;;;5093404;28;20036;-70
2022/03/09 08:58:04;;;;;;;1.77;1.30;;;13.20;33.60;;;;;;5092270;28;20089;-70
2022/03/09 09:00:30;;;;;;;2.22;1.55;;;13.20;33.50;;;;;;5092342;28;20111;-70
2022/03/09 09:02:56;;;;;;;2.00;1.40;;;13.30;33.50;;;;;;5092274;28;20044;-70
2022/03/09 09:05:22;;;;;;;2.08;1.52;;;13.30;33.50;;;;;;5092841;28;20055;-70
2022/03/09 09:07:48;;;;;;;2.30;1.42;;;13.30;33.50;;;;;;5093431;28;20036;-74
2022/03/09 09:10:14;;;;;;;1.80;1.60;;;13.30;33.50;;;;;;5092155;28;20051;-71
2022/03/09 09:12:40;;;;;;;1.98;1.75;;;13.30;33.50;;;;;;5091863;28;20487;-71
2022/03/09 09:15:06;;;;;;;1.88;1.67;;;13.30;33.40;;;;;;5093166;28;20084;-70
2022/03/09 09:17:33;;;;;;;2.03;1.42;;;13.30;33.40;;;;;;5091176;28;20054;-69
2022/03/09 09:19:59;;;;;;;2.97;1.33;;;13.40;33.50;;;;;;5092919;28;20464;-69
2022/03/09 09:22:27;;;;;;;2.15;1.55;;;13.30;33.40;;;;;;5091943;28;20150;-69
2022/03/09 09:24:53;;;;;;;1.70;1.40;;;13.30;33.30;;;;;;5091616;28;20040;-69
2022/03/09 09:27:19;;;;;;;2.42;1.75;;;13.30;33.30;;;;;;5091254;28;20496;-70
2022/03/09 09:29:45;;;;;;;2.40;1.80;;;13.40;33.30;;;;;;5091766;28;20097;-69
2022/03/09 09:32:11;;;;;;;1.90;1.70;;;13.40;33.30;;;;;;5092762;28;20475;-69
2022/03/09 09:34:36;;;;;;;1.83;1.40;;;13.40;33.30;;;;;;5092973;28;20036;-69
2022/03/09 09:37:02;;;;;;;2.15;1.30;;;13.40;33.30;;;;;;5091151;28;20054;-69
2022/03/09 09:39:29;;;;;;;1.92;1.10;;;13.30;33.20;;;;;;5091157;28;20369;-70
2022/03/09 09:41:55;;;;;;;1.75;1.40;;;13.30;33.20;;;;;;5091614;28;20151;-69
2022/03/09 09:44:23;;;;;;;3.28;1.70;;;13.40;33.20;;;;;;5092817;28;20115;-69
2022/03/09 09:46:50;;;;;;;2.05;1.60;;;13.40;33.20;;;;;;5092662;28;20043;-69
2022/03/09 09:49:17;;;;;;;1.77;1.50;;;13.40;33.20;;;;;;5092459;28;20075;-70
2022/03/09 09:51:47;;;;;;;2.13;1.60;;;13.40;33.10;;;;;;5091356;28;20471;-69
2022/03/09 09:54:15;;;;;;;2.45;1.73;;;13.40;33.10;;;;;;5092288;28;20119;-69
2022/03/09 09:56:42;;;;;;;1.83;1.23;;;13.40;33.10;;;;;;5091219;28;20087;-70
2022/03/09 09:59:11;;;;;;;2.65;1.63;;;13.40;33.00;;;;;;5091363;28;20106;-69
2022/03/09 10:01:39;;;;;;;2.28;1.50;;;13.40;33.80;;;;;;5091209;28;20040;-69
2022/03/09 10:04:06;;;;;;;2.55;1.42;;;13.40;33.00;;;;;;5090976;28;20039;-69
2022/03/09 10:06:33;;;;;;;2.13;1.42;;;13.50;33.00;;;;;;5092063;28;20063;-69
2022/03/09 10:09:03;;;;;;;1.85;1.33;;;13.50;33.00;;;;;;5090882;28;20036;-69
2022/03/09 10:11:50;;;;;;;2.75;1.48;;;13.50;32.90;;;;;;5091037;28;20040;-69
2022/03/09 10:14:37;;;;;;;1.60;1.13;;;13.50;32.90;;;;;;5091952;28;20048;-69
2022/03/09 10:17:05;;;;;;;2.00;1.27;;;13.50;32.90;;;;;;5124625;27;20039;-69
2022/03/09 10:19:33;;;;;;;1.98;1.17;;;13.50;32.80;;;;;;5090714;28;20048;-69
2022/03/09 10:22:21;;;;;;;3.08;1.60;;;13.60;32.80;;;;;;5092055;28;20040;-69
2022/03/09 10:24:47;;;;;;;1.90;1.58;;;13.60;32.80;;;;;;5091981;28;20044;-71
2022/03/09 10:27:12;;;;;;;2.78;1.58;;;13.60;32.70;;;;;;5090341;28;20047;-69
2022/03/09 10:29:38;;;;;;;2.15;1.27;;;13.70;32.70;;;;;;5090641;28;20052;-69
2022/03/09 10:32:04;;;;;;;2.17;1.33;;;13.70;32.60;;;;;;5090559;28;20036;-70
2022/03/09 10:34:30;;;;;;;2.42;1.50;;;13.70;32.60;;;;;;5090665;28;20472;-70
2022/03/09 10:39:39;;;;;;;3.13;1.60;;;13.70;32.50;;;;;;5151504;27;1200285;-67
2022/03/09 10:42:22;;;;;;;2.08;1.70;;;13.90;32.40;;;;;;5153367;27;20428;-68
2022/03/09 10:44:50;;;;;;;3.20;1.77;;;13.90;32.30;;;;;;5153243;27;20049;-68
2022/03/09 10:47:35;;;;;;;2.38;1.83;;;13.90;32.30;;;;;;5152932;27;20102;-68
2022/03/09 10:50:22;;;;;;;2.28;1.80;;;14.00;32.30;;;;;;5152974;27;20038;-68
2022/03/09 11:00:55;;;;;;;2.58;1.98;;;14.00;32.20;;;;;;5089935;27;20416;-68
2022/03/09 11:03:24;;;;;;;2.53;1.90;;;14.10;32.00;;;;;;5089098;28;20074;-68
2022/03/09 11:05:56;;;;;;;1.88;1.50;;;14.20;32.00;;;;;;5089554;28;20393;-68
2022/03/09 11:08:24;;;;;;;2.20;1.70;;;14.20;31.90;;;;;;5088026;28;20492;-67
2022/03/09 11:10:50;;;;;;;2.10;1.83;;;14.20;31.90;;;;;;5089354;28;20427;-70
2022/03/09 11:13:17;;;;;;;3.03;2.10;;;14.20;31.90;;;;;;5089166;28;20044;-69
2022/03/09 11:15:44;;;;;;;2.65;1.77;;;14.30;31.90;;;;;;5088081;28;20090;-69
2022/03/09 11:18:17;;;;;;;2.95;2.03;;;14.20;31.80;;;;;;5087862;28;20097;-69
2022/03/09 11:20:44;;;;;;;2.58;2.00;;;14.30;31.90;;;;;;5089097;28;20033;-70
2022/03/09 11:23:12;;;;;;;2.95;1.90;;;14.20;31.80;;;;;;5089270;28;20086;-70
2022/03/09 11:25:41;;;;;;;1.98;1.73;;;14.30;31.90;;;;;;5087689;28;20077;-69
2022/03/09 11:28:08;;;;;;;2.50;2.00;;;14.30;31.90;;;;;;5088832;28;20070;-69
2022/03/09 11:30:33;;;;;;;2.13;1.92;;;14.20;31.90;;;;;;5087544;28;20508;-70
2022/03/09 11:33:00;;;;;;;2.17;1.98;;;14.20;31.90;;;;;;5087544;28;20048;-70
2022/03/09 11:35:41;;;;;;;2.45;1.90;;;14.20;31.90;;;;;;5088732;28;20051;-69
2022/03/09 11:47:04;;;;;;;3.13;2.05;;;14.20;31.90;;;;;;5130207;27;20849;-67
2022/03/09 11:49:33;;;;;;;2.67;1.90;;;14.20;31.90;;;;;;5128832;28;20050;-67
2022/03/09 12:00:24;;;;;;;2.40;2.20;;;14.20;31.90;;;;;;5130289;27;20432;-70
2022/03/09 12:02:54;;;;;;;2.67;1.55;;;14.30;31.90;;;;;;5128940;28;20044;-71
2022/03/09 12:08:09;;;;;;;2.97;2.10;;;14.30;31.90;;;;;;5153049;27;1177350;-68
2022/03/09 12:10:54;;;;;;;2.90;2.17;;;14.40;31.80;;;;;;5152840;27;20492;-69
2022/03/09 12:16:14;;;;;;;2.85;2.22;;;14.30;31.80;;;;;;5130119;27;20394;-70
2022/03/09 12:24:22;;;;;;;3.75;2.65;;;14.40;31.90;;;;;;5130260;27;20411;-69
2022/03/09 12:32:11;;;;;;;2.70;1.73;;;14.50;32.00;;;;;;5130193;27;20389;-70
2022/03/09 12:34:40;;;;;;;3.40;2.45;;;14.40;31.90;;;;;;5129456;28;20062;-69
2022/03/09 12:37:08;;;;;;;3.15;2.53;;;14.40;31.90;;;;;;5129085;28;20063;-69
2022/03/09 12:39:38;;;;;;;3.28;2.90;;;14.50;31.90;;;;;;5128870;28;20126;-70
2022/03/09 12:42:07;;;;;;;3.33;2.75;;;14.50;31.90;;;;;;5128666;28;20126;-70
2022/03/09 12:44:35;;;;;;;2.72;2.30;;;14.50;31.80;;;;;;5129183;28;20047;-70
2022/03/09 12:47:04;;;;;;;3.10;2.08;;;14.50;31.80;;;;;;5130149;27;20044;-70
2022/03/09 12:52:15;;;;;;;2.45;1.90;;;14.50;31.70;;;;;;5130120;27;20515;-68
2022/03/09 12:54:47;;;;;;;2.58;2.13;;;14.50;31.70;;;;;;5146247;27;20058;-68
2022/03/09 12:57:17;;;;;;;2.75;2.30;;;14.60;31.70;;;;;;5128914;28;20490;-68
2022/03/09 13:02:52;;;;;;;2.30;2.10;;;14.60;31.70;;;;;;5109108;27;20405;-68
2022/03/09 13:08:05;;;;;;;3.40;2.10;;;14.60;31.70;;;;;;5089376;28;20421;-71
2022/03/09 13:10:51;;;;;;;4.05;2.60;;;14.60;31.60;;;;;;5088384;28;20050;-68
2022/03/09 13:13:18;;;;;;;3.05;2.67;;;14.60;31.60;;;;;;5088289;28;20044;-68
2022/03/09 13:15:48;;;;;;;3.03;1.42;;;14.70;31.70;;;;;;5085229;28;20086;-76
2022/03/09 13:18:27;;;;;;;3.55;1.95;;;14.70;32.10;;;;;;5082232;28;20593;-84
2022/03/09 13:20:53;;;;;;;2.20;1.98;;;14.70;32.90;;;;;;5086889;28;20380;-74
2022/03/09 13:23:42;;;;;;;2.50;1.73;;;14.80;33.40;;;;;;5086533;28;20082;-75
2022/03/09 13:28:59;;;;;;;4.10;2.35;;;14.80;33.90;;;;;;5128657;27;20439;-77
2022/03/09 13:31:49;;;;;;;3.60;2.25;;;15.00;33.70;;;;;;5127636;28;20051;-78
2022/03/09 13:34:18;;;;;;;4.55;1.70;;;15.00;33.60;;;;;;5127024;28;20050;-78
2022/03/09 13:36:44;;;;;;;3.53;1.27;;;15.10;33.60;;;;;;5128439;27;20640;-75
2022/03/09 13:39:12;;;;;;;2.42;1.65;;;15.30;33.40;;;;;;5126942;28;20088;-77
2022/03/09 13:41:41;;;;;;;4.82;2.38;;;15.60;33.10;;;;;;5126464;27;20039;-76
2022/03/09 13:44:27;;;;;;;2.53;1.63;;;15.90;32.70;;;;;;5126482;28;20051;-77
2022/03/09 13:47:11;;;;;;;3.75;1.27;;;16.30;32.20;;;;;;5125325;28;20415;-76
2022/03/09 13:49:48;;;;;;;3.38;1.27;;;16.70;31.80;;;;;;5107570;28;20049;-79
2022/03/09 13:52:32;;;;;;;1.77;1.20;;;17.00;31.40;;;;;;5118313;28;20035;-76
2022/03/09 13:54:59;;;;;;;1.55;1.35;;;17.30;31.00;;;;;;5128000;28;20085;-75